createdAt,value
2022-12-14T00:00:02.542Z,10.600000
2022-12-14T00:01:01.053Z,10.600000
2022-12-14T00:02:01.034Z,12.400000
2022-12-14T00:03:01.131Z,12.400000
2022-12-14T00:04:01.032Z,12.400000
2022-12-14T00:05:01.407Z,13.700000
2022-12-14T00:06:01.146Z,13.700000
2022-12-14T00:07:00.989Z,13.700000
2022-12-14T00:08:01.069Z,13.700000
2022-12-14T00:09:01.020Z,13.700000
2022-12-14T00:10:01.723Z,12.200000
2022-12-14T00:11:01.019Z,12.200000
2022-12-14T00:12:01.152Z,9.100000
2022-12-14T00:13:01.028Z,9.100000
2022-12-14T00:14:01.088Z,9.100000
2022-12-14T00:15:01.447Z,9.300000
2022-12-14T00:16:01.195Z,9.300000
2022-12-14T00:17:01.048Z,9.300000
2022-12-14T00:18:01.213Z,9.500000
2022-12-14T00:19:01.060Z,9.500000
2022-12-14T00:20:01.687Z,11.600000
2022-12-14T00:21:01.088Z,11.600000
2022-12-14T00:22:01.161Z,11.600000
2022-12-14T00:23:01.078Z,10.900000
2022-12-14T00:24:01.210Z,10.900000
2022-12-14T00:25:01.539Z,10.900000
2022-12-14T00:26:01.186Z,10.900000
2022-12-14T00:27:01.118Z,10.900000
2022-12-14T00:28:01.159Z,10.300000
2022-12-14T00:29:01.149Z,10.300000
2022-12-14T00:30:01.815Z,10.300000
2022-12-14T00:31:01.200Z,13.400000
2022-12-14T00:32:01.187Z,13.400000
2022-12-14T00:33:01.156Z,13.400000
2022-12-14T00:34:01.497Z,13.400000
2022-12-14T00:35:01.540Z,9.400000
2022-12-14T00:36:01.310Z,9.400000
2022-12-14T00:37:01.165Z,9.400000
2022-12-14T00:38:01.275Z,13.200000
2022-12-14T00:39:00.187Z,13.200000
2022-12-14T00:40:00.863Z,13.200000
2022-12-14T00:41:00.206Z,13.200000
2022-12-14T00:42:00.315Z,13.200000
2022-12-14T00:43:00.204Z,10.200000
2022-12-14T00:44:00.279Z,10.200000
2022-12-14T00:45:00.716Z,10.200000
2022-12-14T00:46:00.347Z,10.200000
2022-12-14T00:47:00.250Z,10.200000
2022-12-14T00:48:00.348Z,10.200000
2022-12-14T00:49:00.250Z,11.700000
2022-12-14T00:50:01.300Z,11.700000
2022-12-14T00:51:00.286Z,11.700000
2022-12-14T00:52:00.347Z,11.700000
2022-12-14T00:53:00.263Z,11.700000
2022-12-14T00:54:00.426Z,13.300000
2022-12-14T00:55:00.737Z,13.300000
2022-12-14T00:56:00.354Z,13.300000
2022-12-14T00:57:00.325Z,13.300000
2022-12-14T00:58:00.367Z,12.700000
2022-12-14T00:59:00.317Z,12.700000
2022-12-14T01:00:00.998Z,12.700000
2022-12-14T01:01:00.351Z,12.200000
2022-12-14T01:02:00.540Z,12.200000
2022-12-14T01:03:00.382Z,12.200000
2022-12-14T01:04:00.519Z,10.500000
2022-12-14T01:05:00.813Z,10.500000
2022-12-14T01:06:00.497Z,10.000000
2022-12-14T01:07:00.406Z,10.000000
2022-12-14T01:08:00.475Z,9.800000
2022-12-14T01:09:00.419Z,9.800000
2022-12-14T01:10:01.100Z,9.800000
2022-12-14T01:11:00.414Z,12.200000
2022-12-14T01:12:00.529Z,12.200000
2022-12-14T01:13:00.420Z,12.200000
2022-12-14T01:14:00.528Z,10.700000
2022-12-14T01:15:00.843Z,10.700000
2022-12-14T01:16:00.557Z,10.800000
2022-12-14T01:17:00.462Z,10.800000
2022-12-14T01:18:00.560Z,10.800000
2022-12-14T01:19:00.474Z,13.300000
2022-12-14T01:20:01.141Z,13.300000
2022-12-14T01:21:00.475Z,13.300000
2022-12-14T01:22:00.546Z,12.300000
2022-12-14T01:23:00.488Z,12.300000
2022-12-14T01:24:00.598Z,13.500000
2022-12-14T01:25:01.009Z,13.500000
2022-12-14T01:26:00.591Z,13.500000
2022-12-14T01:27:00.515Z,14.600000
2022-12-14T01:28:00.598Z,14.600000
2022-12-14T01:29:00.545Z,14.600000
2022-12-14T01:30:01.258Z,14.600000
2022-12-14T01:31:00.579Z,14.600000
2022-12-14T01:32:00.616Z,12.700000
2022-12-14T01:33:00.567Z,12.700000
2022-12-14T01:34:00.638Z,11.800000
2022-12-14T01:35:00.987Z,11.800000
2022-12-14T01:36:00.660Z,11.800000
2022-12-14T01:37:00.603Z,13.700000
2022-12-14T01:38:00.663Z,13.700000
2022-12-14T01:39:00.605Z,13.700000
2022-12-14T01:40:01.297Z,13.700000
2022-12-14T01:41:00.598Z,13.700000
2022-12-14T01:42:00.923Z,16.400000
2022-12-14T01:43:00.606Z,16.400000
2022-12-14T01:44:00.677Z,11.500000
2022-12-14T01:45:01.422Z,11.500000
2022-12-14T01:46:00.728Z,11.500000
2022-12-14T01:47:00.663Z,13.200000
2022-12-14T01:48:00.753Z,13.200000
2022-12-14T01:49:00.658Z,12.900000
2022-12-14T01:50:01.403Z,12.900000
2022-12-14T01:51:00.689Z,12.900000
2022-12-14T01:52:00.784Z,12.900000
2022-12-14T01:53:00.711Z,12.900000
2022-12-14T01:54:00.808Z,12.600000
2022-12-14T01:55:01.165Z,12.600000
2022-12-14T01:56:00.798Z,12.600000
2022-12-14T01:57:00.747Z,12.900000
2022-12-14T01:58:00.863Z,12.900000
2022-12-14T01:59:00.742Z,11.500000
2022-12-14T02:00:06.992Z,11.500000
2022-12-14T02:01:00.773Z,14.300000
2022-12-14T02:02:00.991Z,14.300000
2022-12-14T02:03:00.904Z,14.300000
2022-12-14T02:04:00.881Z,14.300000
2022-12-14T02:05:01.236Z,14.300000
2022-12-14T02:06:00.916Z,14.300000
2022-12-14T02:07:01.437Z,14.400000
2022-12-14T02:08:00.907Z,14.400000
2022-12-14T02:09:00.832Z,12.800000
2022-12-14T02:10:01.707Z,12.800000
2022-12-14T02:11:00.840Z,12.000000
2022-12-14T02:12:00.936Z,12.000000
2022-12-14T02:13:00.863Z,12.000000
2022-12-14T02:14:00.942Z,11.800000
2022-12-14T02:15:01.306Z,11.800000
2022-12-14T02:16:01.031Z,11.800000
2022-12-14T02:17:00.858Z,11.200000
2022-12-14T02:18:00.979Z,11.200000
2022-12-14T02:19:00.889Z,11.200000
2022-12-14T02:20:01.608Z,10.800000
2022-12-14T02:21:00.912Z,10.800000
2022-12-14T02:22:00.970Z,14.500000
2022-12-14T02:23:00.890Z,14.500000
2022-12-14T02:24:01.071Z,14.500000
2022-12-14T02:25:01.302Z,14.500000
2022-12-14T02:26:01.008Z,14.500000
2022-12-14T02:27:00.934Z,12.200000
2022-12-14T02:28:00.996Z,12.200000
2022-12-14T02:29:00.938Z,12.200000
2022-12-14T02:30:01.754Z,11.900000
2022-12-14T02:31:00.994Z,11.900000
2022-12-14T02:32:01.057Z,11.900000
2022-12-14T02:33:00.994Z,11.900000
2022-12-14T02:34:01.038Z,11.100000
2022-12-14T02:35:01.433Z,11.100000
2022-12-14T02:36:01.113Z,11.100000
2022-12-14T02:37:01.018Z,11.700000
2022-12-14T02:38:01.099Z,11.700000
2022-12-14T02:39:01.032Z,11.700000
2022-12-14T02:40:02.340Z,13.800000
2022-12-14T02:41:01.050Z,13.800000
2022-12-14T02:42:01.338Z,13.800000
2022-12-14T02:43:01.066Z,10.600000
2022-12-14T02:44:01.128Z,10.600000
2022-12-14T02:45:01.517Z,14.500000
2022-12-14T02:46:01.158Z,14.500000
2022-12-14T02:47:01.136Z,14.500000
2022-12-14T02:48:01.207Z,14.500000
2022-12-14T02:49:01.093Z,14.500000
2022-12-14T02:50:01.805Z,16.800000
2022-12-14T02:51:01.118Z,16.800000
2022-12-14T02:52:01.183Z,16.800000
2022-12-14T02:53:01.134Z,16.800000
2022-12-14T02:54:01.289Z,16.800000
2022-12-14T02:55:01.583Z,10.600000
2022-12-14T02:56:01.221Z,10.600000
2022-12-14T02:57:01.201Z,11.100000
2022-12-14T02:58:01.216Z,11.100000
2022-12-14T02:59:01.139Z,11.100000
2022-12-14T03:00:01.931Z,12.200000
2022-12-14T03:01:00.231Z,12.200000
2022-12-14T03:02:00.401Z,12.200000
2022-12-14T03:03:00.274Z,12.000000
2022-12-14T03:04:00.291Z,12.000000
2022-12-14T03:05:00.708Z,9.100000
2022-12-14T03:06:00.352Z,9.100000
2022-12-14T03:07:00.237Z,9.100000
2022-12-14T03:08:00.342Z,10.000000
2022-12-14T03:09:00.263Z,10.000000
2022-12-14T03:10:00.929Z,10.000000
2022-12-14T03:11:00.268Z,10.000000
2022-12-14T03:12:00.360Z,9.900000
2022-12-14T03:13:00.277Z,9.900000
2022-12-14T03:14:00.383Z,9.900000
2022-12-14T03:15:00.695Z,10.100000
2022-12-14T03:16:00.418Z,10.100000
2022-12-14T03:17:00.299Z,10.600000
2022-12-14T03:18:00.456Z,10.600000
2022-12-14T03:19:00.354Z,10.600000
2022-12-14T03:20:01.090Z,10.500000
2022-12-14T03:21:00.350Z,10.500000
2022-12-14T03:22:00.412Z,10.500000
2022-12-14T03:23:00.337Z,10.500000
2022-12-14T03:24:00.494Z,10.500000
2022-12-14T03:25:00.847Z,10.800000
2022-12-14T03:26:00.459Z,10.800000
2022-12-14T03:27:00.395Z,10.800000
2022-12-14T03:28:00.456Z,10.800000
2022-12-14T03:29:00.415Z,10.800000
2022-12-14T03:30:01.704Z,12.700000
2022-12-14T03:31:00.932Z,12.700000
2022-12-14T03:32:00.615Z,12.700000
2022-12-14T03:33:00.448Z,11.200000
2022-12-14T03:34:01.734Z,11.200000
2022-12-14T03:35:01.220Z,11.200000
2022-12-14T03:36:00.555Z,11.200000
2022-12-14T03:37:00.453Z,11.200000
2022-12-14T03:38:00.514Z,10.600000
2022-12-14T03:39:00.477Z,10.600000
2022-12-14T03:40:01.230Z,10.600000
2022-12-14T03:41:00.467Z,11.100000
2022-12-14T03:42:00.587Z,11.100000
2022-12-14T03:43:00.468Z,11.100000
2022-12-14T03:44:01.743Z,11.100000
2022-12-14T03:45:00.908Z,11.100000
2022-12-14T03:46:00.643Z,10.700000
2022-12-14T03:47:00.514Z,10.700000
2022-12-14T03:48:00.658Z,10.700000
2022-12-14T03:49:00.540Z,10.700000
2022-12-14T03:50:01.304Z,10.700000
2022-12-14T03:51:00.593Z,11.400000
2022-12-14T03:52:00.633Z,11.400000
2022-12-14T03:53:00.585Z,9.000000
2022-12-14T03:54:00.702Z,9.000000
2022-12-14T03:55:01.007Z,9.000000
2022-12-14T03:56:00.668Z,7.700000
2022-12-14T03:57:00.621Z,7.700000
2022-12-14T03:58:01.701Z,7.700000
2022-12-14T03:59:00.617Z,9.300000
2022-12-14T04:00:01.366Z,9.300000
2022-12-14T04:01:00.703Z,9.300000
2022-12-14T04:02:01.844Z,9.300000
2022-12-14T04:03:00.747Z,9.300000
2022-12-14T04:04:00.759Z,8.000000
2022-12-14T04:05:01.186Z,8.000000
2022-12-14T04:06:01.712Z,9.100000
2022-12-14T04:07:00.686Z,9.100000
2022-12-14T04:08:00.778Z,9.100000
2022-12-14T04:09:00.704Z,9.100000
2022-12-14T04:10:01.710Z,9.100000
2022-12-14T04:11:00.754Z,8.600000
2022-12-14T04:12:00.798Z,8.600000
2022-12-14T04:13:00.722Z,8.600000
2022-12-14T04:14:01.724Z,8.600000
2022-12-14T04:15:01.247Z,8.600000
2022-12-14T04:16:00.850Z,8.600000
2022-12-14T04:17:00.786Z,8.600000
2022-12-14T04:18:00.834Z,8.600000
2022-12-14T04:19:01.003Z,7.700000
2022-12-14T04:20:01.674Z,7.700000
2022-12-14T04:21:00.805Z,7.700000
2022-12-14T04:22:00.924Z,7.500000
2022-12-14T04:23:00.823Z,7.500000
2022-12-14T04:24:00.930Z,6.800000
2022-12-14T04:25:01.296Z,6.800000
2022-12-14T04:26:00.914Z,6.800000
2022-12-14T04:27:00.861Z,6.800000
2022-12-14T04:28:01.724Z,4.800000
2022-12-14T04:29:00.866Z,4.800000
2022-12-14T04:30:02.281Z,4.800000
2022-12-14T04:31:00.887Z,7.100000
2022-12-14T04:32:01.853Z,7.100000
2022-12-14T04:33:00.924Z,7.100000
2022-12-14T04:34:00.987Z,7.100000
2022-12-14T04:35:01.914Z,7.100000
2022-12-14T04:36:01.699Z,7.100000
2022-12-14T04:37:00.924Z,7.100000
2022-12-14T04:38:01.010Z,6.400000
2022-12-14T04:39:00.950Z,6.400000
2022-12-14T04:40:01.729Z,6.400000
2022-12-14T04:41:00.955Z,5.600000
2022-12-14T04:42:01.039Z,5.600000
2022-12-14T04:43:00.956Z,5.600000
2022-12-14T04:44:01.719Z,6.400000
2022-12-14T04:45:01.619Z,6.400000
2022-12-14T04:46:01.180Z,6.400000
2022-12-14T04:47:01.057Z,6.400000
2022-12-14T04:48:01.067Z,6.400000
2022-12-14T04:49:00.990Z,6.700000
2022-12-14T04:50:01.811Z,6.700000
2022-12-14T04:51:01.023Z,7.300000
2022-12-14T04:52:05.244Z,7.300000
2022-12-14T04:53:01.005Z,7.300000
2022-12-14T04:54:01.127Z,7.300000
2022-12-14T04:55:01.592Z,7.300000
2022-12-14T04:56:01.111Z,7.200000
2022-12-14T04:57:01.055Z,7.200000
2022-12-14T04:58:01.724Z,7.200000
2022-12-14T04:59:01.064Z,7.200000
2022-12-14T05:00:02.128Z,7.200000
2022-12-14T05:01:01.117Z,6.700000
2022-12-14T05:02:01.854Z,6.700000
2022-12-14T05:03:01.192Z,6.700000
2022-12-14T05:04:01.203Z,8.100000
2022-12-14T05:05:01.564Z,8.100000
2022-12-14T05:06:01.709Z,8.100000
2022-12-14T05:07:01.104Z,8.100000
2022-12-14T05:08:01.199Z,8.100000
2022-12-14T05:09:01.135Z,6.600000
2022-12-14T05:10:01.935Z,6.600000
2022-12-14T05:11:22.157Z,6.600000
2022-12-14T05:12:01.229Z,6.600000
2022-12-14T05:13:01.157Z,6.600000
2022-12-14T05:14:01.721Z,6.700000
2022-12-14T05:15:01.702Z,6.700000
2022-12-14T05:16:00.288Z,6.700000
2022-12-14T05:17:04.981Z,6.700000
2022-12-14T05:18:00.284Z,6.700000
2022-12-14T05:19:00.191Z,6.700000
2022-12-14T05:20:00.905Z,6.700000
2022-12-14T05:21:00.231Z,6.700000
2022-12-14T05:22:00.338Z,6.200000
2022-12-14T05:23:00.235Z,6.200000
2022-12-14T05:24:00.314Z,6.900000
2022-12-14T05:25:08.229Z,6.900000
2022-12-14T05:26:00.333Z,6.900000
2022-12-14T05:27:00.276Z,7.100000
2022-12-14T05:28:01.766Z,7.100000
2022-12-14T05:29:00.268Z,7.200000
2022-12-14T05:30:01.081Z,7.200000
2022-12-14T05:31:00.365Z,7.200000
2022-12-14T05:32:00.389Z,7.900000
2022-12-14T05:33:00.309Z,7.900000
2022-12-14T05:34:00.400Z,7.900000
2022-12-14T05:35:00.750Z,7.900000
2022-12-14T05:36:00.405Z,7.900000
2022-12-14T05:37:00.323Z,7.900000
2022-12-14T05:38:01.749Z,7.900000
2022-12-14T05:39:00.348Z,7.900000
2022-12-14T05:40:01.030Z,7.000000
2022-12-14T05:41:00.376Z,7.000000
2022-12-14T05:42:01.787Z,8.100000
2022-12-14T05:43:00.363Z,8.100000
2022-12-14T05:44:00.431Z,8.100000
2022-12-14T05:45:04.874Z,9.700000
2022-12-14T05:46:01.818Z,9.700000
2022-12-14T05:47:00.386Z,9.700000
2022-12-14T05:48:00.469Z,9.700000
2022-12-14T05:49:00.381Z,9.700000
2022-12-14T05:50:02.019Z,9.100000
2022-12-14T05:51:00.457Z,9.100000
2022-12-14T05:52:00.527Z,10.800000
2022-12-14T05:53:00.434Z,10.800000
2022-12-14T05:54:01.741Z,10.800000
2022-12-14T05:55:04.227Z,10.800000
2022-12-14T05:56:00.637Z,10.800000
2022-12-14T05:57:00.844Z,8.100000
2022-12-14T05:58:00.535Z,8.100000
2022-12-14T05:59:00.454Z,8.100000
2022-12-14T06:00:01.348Z,8.200000
2022-12-14T06:01:00.498Z,8.200000
2022-12-14T06:02:00.764Z,8.200000
2022-12-14T06:03:00.578Z,8.900000
2022-12-14T06:04:00.660Z,8.900000
2022-12-14T06:05:00.985Z,10.000000
2022-12-14T06:06:00.616Z,10.000000
2022-12-14T06:07:00.577Z,11.500000
2022-12-14T06:08:00.640Z,11.500000
2022-12-14T06:09:00.622Z,11.500000
2022-12-14T06:10:01.281Z,11.500000
2022-12-14T06:11:00.577Z,11.500000
2022-12-14T06:12:01.755Z,10.500000
2022-12-14T06:13:00.616Z,10.500000
2022-12-14T06:14:00.664Z,10.500000
2022-12-14T06:15:02.000Z,10.500000
2022-12-14T06:16:01.753Z,10.500000
2022-12-14T06:17:00.615Z,8.800000
2022-12-14T06:18:00.727Z,8.800000
2022-12-14T06:19:00.645Z,9.200000
2022-12-14T06:20:02.628Z,9.200000
2022-12-14T06:21:00.675Z,9.200000
2022-12-14T06:22:00.724Z,9.900000
2022-12-14T06:23:00.664Z,9.900000
2022-12-14T06:24:01.729Z,9.900000
2022-12-14T06:25:01.502Z,9.900000
2022-12-14T06:26:00.794Z,9.900000
2022-12-14T06:27:00.707Z,7.800000
2022-12-14T06:28:00.811Z,7.800000
2022-12-14T06:29:00.719Z,7.800000
2022-12-14T06:30:01.432Z,6.800000
2022-12-14T06:31:00.743Z,6.800000
2022-12-14T06:32:00.839Z,6.800000
2022-12-14T06:33:00.733Z,6.400000
2022-12-14T06:34:00.820Z,6.400000
2022-12-14T06:35:01.537Z,6.300000
2022-12-14T06:36:00.808Z,6.300000
2022-12-14T06:37:00.771Z,6.300000
2022-12-14T06:38:00.847Z,6.300000
2022-12-14T06:39:00.780Z,6.300000
2022-12-14T06:40:01.397Z,5.400000
2022-12-14T06:41:00.786Z,5.400000
2022-12-14T06:42:00.867Z,0.000000
2022-12-14T06:43:00.783Z,0.000000
2022-12-14T06:44:01.775Z,0.000000
2022-12-14T06:45:01.288Z,0.000000
2022-12-14T06:46:00.908Z,0.000000
2022-12-14T06:47:00.883Z,0.000000
2022-12-14T06:48:00.919Z,5.300000
2022-12-14T06:49:00.850Z,5.300000
2022-12-14T06:50:02.495Z,5.300000
2022-12-14T06:51:00.869Z,5.300000
2022-12-14T06:52:00.923Z,5.300000
2022-12-14T06:53:00.876Z,0.000000
2022-12-14T06:54:00.959Z,0.000000
2022-12-14T06:55:01.325Z,0.000000
2022-12-14T06:56:00.991Z,0.000000
2022-12-14T06:57:00.904Z,0.000000
2022-12-14T06:58:01.708Z,0.000000
2022-12-14T06:59:00.914Z,5.100000
2022-12-14T07:00:02.170Z,5.100000
2022-12-14T07:01:00.927Z,5.100000
2022-12-14T07:02:01.895Z,5.100000
2022-12-14T07:03:01.123Z,5.500000
2022-12-14T07:04:01.025Z,5.500000
2022-12-14T07:05:01.596Z,4.000000
2022-12-14T07:06:01.727Z,4.000000
2022-12-14T07:07:00.975Z,4.000000
2022-12-14T07:08:01.092Z,5.500000
2022-12-14T07:09:00.986Z,5.500000
2022-12-14T07:10:03.901Z,5.500000
2022-12-14T07:11:02.534Z,6.300000
2022-12-14T07:12:01.080Z,6.300000
2022-12-14T07:13:01.021Z,6.300000
2022-12-14T07:14:01.781Z,6.300000
2022-12-14T07:15:03.981Z,6.300000
2022-12-14T07:16:01.163Z,6.300000
2022-12-14T07:17:01.029Z,6.300000
2022-12-14T07:18:01.142Z,6.300000
2022-12-14T07:19:01.040Z,5.500000
2022-12-14T07:20:01.893Z,5.500000
2022-12-14T07:21:01.078Z,0.000000
2022-12-14T07:22:01.133Z,0.000000
2022-12-14T07:23:01.090Z,0.000000
2022-12-14T07:24:01.160Z,0.000000
2022-12-14T07:25:01.532Z,0.000000
2022-12-14T07:26:01.217Z,4.100000
2022-12-14T07:27:01.123Z,4.100000
2022-12-14T07:28:01.732Z,0.000000
2022-12-14T07:29:01.103Z,0.000000
2022-12-14T07:30:01.769Z,0.000000
2022-12-14T07:31:01.247Z,0.000000
2022-12-14T07:32:01.216Z,0.000000
2022-12-14T07:33:01.157Z,0.000000
2022-12-14T07:34:01.229Z,0.000000
2022-12-14T07:35:01.611Z,0.000000
2022-12-14T07:36:01.243Z,0.000000
2022-12-14T07:37:01.153Z,0.000000
2022-12-14T07:38:01.829Z,5.500000
2022-12-14T07:39:01.189Z,5.500000
2022-12-14T07:40:01.815Z,5.500000
2022-12-14T07:41:00.196Z,5.500000
2022-12-14T07:42:01.806Z,5.500000
2022-12-14T07:43:00.194Z,5.500000
2022-12-14T07:44:00.322Z,5.100000
2022-12-14T07:45:03.678Z,5.100000
2022-12-14T07:46:01.871Z,4.400000
2022-12-14T07:47:00.260Z,4.400000
2022-12-14T07:48:00.310Z,4.400000
2022-12-14T07:49:00.251Z,0.000000
2022-12-14T07:50:01.795Z,0.000000
2022-12-14T07:51:00.268Z,0.000000
2022-12-14T07:52:00.320Z,0.000000
2022-12-14T07:53:00.260Z,0.000000
2022-12-14T07:54:01.789Z,0.000000
2022-12-14T07:55:00.883Z,0.000000
2022-12-14T07:56:00.447Z,0.000000
2022-12-14T07:57:00.299Z,0.000000
2022-12-14T07:58:00.347Z,0.000000
2022-12-14T07:59:00.286Z,0.000000
2022-12-14T08:00:01.023Z,0.000000
2022-12-14T08:01:00.315Z,0.000000
2022-12-14T08:02:00.557Z,0.000000
2022-12-14T08:03:00.364Z,5.200000
2022-12-14T08:04:00.407Z,5.200000
2022-12-14T08:05:00.990Z,5.200000
2022-12-14T08:06:00.414Z,7.400000
2022-12-14T08:07:00.351Z,7.400000
2022-12-14T08:08:00.502Z,7.400000
2022-12-14T08:09:00.376Z,7.400000
2022-12-14T08:10:01.494Z,7.400000
2022-12-14T08:11:00.397Z,6.900000
2022-12-14T08:12:01.724Z,6.900000
2022-12-14T08:13:00.403Z,6.900000
2022-12-14T08:14:01.426Z,7.500000
2022-12-14T08:15:00.879Z,7.500000
2022-12-14T08:16:00.565Z,7.500000
2022-12-14T08:17:00.424Z,7.500000
2022-12-14T08:18:00.883Z,7.500000
2022-12-14T08:19:00.467Z,5.400000
2022-12-14T08:20:01.317Z,5.400000
2022-12-14T08:21:00.458Z,7.900000
2022-12-14T08:22:00.957Z,7.900000
2022-12-14T08:23:00.474Z,7.900000
2022-12-14T08:24:00.585Z,7.900000
2022-12-14T08:25:00.900Z,7.900000
2022-12-14T08:26:02.678Z,5.600000
2022-12-14T08:27:00.501Z,5.600000
2022-12-14T08:28:01.695Z,5.600000
2022-12-14T08:29:00.497Z,7.000000
2022-12-14T08:30:04.024Z,7.000000
2022-12-14T08:31:00.545Z,7.000000
2022-12-14T08:32:00.629Z,8.600000
2022-12-14T08:33:00.532Z,8.600000
2022-12-14T08:34:01.074Z,8.600000
2022-12-14T08:35:00.988Z,8.600000
2022-12-14T08:36:00.654Z,8.600000
2022-12-14T08:37:00.563Z,7.600000
2022-12-14T08:38:00.658Z,7.600000
2022-12-14T08:39:00.587Z,6.500000
2022-12-14T08:40:01.215Z,6.500000
2022-12-14T08:41:00.586Z,6.500000
2022-12-14T08:42:01.602Z,6.400000
2022-12-14T08:43:00.601Z,6.400000
2022-12-14T08:44:02.730Z,11.200000
2022-12-14T08:45:01.085Z,11.200000
2022-12-14T08:46:00.679Z,11.200000
2022-12-14T08:47:00.746Z,11.200000
2022-12-14T08:48:00.706Z,11.200000
2022-12-14T08:49:00.661Z,9.600000
2022-12-14T08:50:01.547Z,9.600000
2022-12-14T08:51:00.677Z,9.600000
2022-12-14T08:52:00.717Z,14.400000
2022-12-14T08:53:00.669Z,14.400000
2022-12-14T08:54:00.753Z,14.400000
2022-12-14T08:55:01.136Z,14.400000
2022-12-14T08:56:00.786Z,13.800000
2022-12-14T08:57:00.691Z,13.800000
2022-12-14T08:58:01.750Z,13.800000
2022-12-14T08:59:00.694Z,10.300000
2022-12-14T09:00:02.533Z,10.300000
2022-12-14T09:01:00.747Z,10.300000
2022-12-14T09:02:00.956Z,12.800000
2022-12-14T09:03:00.891Z,12.800000
2022-12-14T09:04:00.799Z,12.800000
2022-12-14T09:05:01.553Z,9.500000
2022-12-14T09:06:01.012Z,9.500000
2022-12-14T09:07:00.784Z,8.500000
2022-12-14T09:08:00.845Z,8.500000
2022-12-14T09:09:00.793Z,10.800000
2022-12-14T09:10:01.529Z,10.800000
2022-12-14T09:11:00.803Z,10.800000
2022-12-14T09:12:01.719Z,11.300000
2022-12-14T09:13:00.820Z,11.300000
2022-12-14T09:14:00.907Z,11.800000
2022-12-14T09:15:01.303Z,11.800000
2022-12-14T09:16:00.929Z,11.800000
2022-12-14T09:17:00.833Z,13.600000
2022-12-14T09:18:01.399Z,13.600000
2022-12-14T09:19:00.859Z,11.000000
2022-12-14T09:20:01.633Z,11.000000
2022-12-14T09:21:00.887Z,11.000000
2022-12-14T09:22:02.237Z,13.500000
2022-12-14T09:23:00.860Z,13.500000
2022-12-14T09:24:00.975Z,11.100000
2022-12-14T09:25:01.345Z,11.100000
2022-12-14T09:26:02.339Z,11.100000
2022-12-14T09:27:00.908Z,13.300000
2022-12-14T09:28:00.989Z,13.300000
2022-12-14T09:29:00.908Z,12.700000
2022-12-14T09:30:01.665Z,12.700000
2022-12-14T09:31:00.947Z,12.700000
2022-12-14T09:32:01.107Z,14.200000
2022-12-14T09:33:00.945Z,14.200000
2022-12-14T09:34:01.029Z,14.200000
2022-12-14T09:35:01.451Z,14.200000
2022-12-14T09:36:01.049Z,14.200000
2022-12-14T09:37:00.980Z,14.200000
2022-12-14T09:38:01.091Z,12.500000
2022-12-14T09:39:00.980Z,12.500000
2022-12-14T09:40:01.685Z,11.600000
2022-12-14T09:41:00.994Z,11.600000
2022-12-14T09:42:01.400Z,11.900000
2022-12-14T09:43:01.000Z,11.900000
2022-12-14T09:44:01.765Z,11.900000
2022-12-14T09:45:01.497Z,10.800000
2022-12-14T09:46:01.136Z,10.800000
2022-12-14T09:47:01.039Z,10.800000
2022-12-14T09:48:01.115Z,10.700000
2022-12-14T09:49:01.034Z,10.700000
2022-12-14T09:50:01.837Z,8.500000
2022-12-14T09:51:01.081Z,8.500000
2022-12-14T09:52:01.111Z,10.100000
2022-12-14T09:53:01.067Z,10.100000
2022-12-14T09:54:02.817Z,10.100000
2022-12-14T09:55:01.522Z,8.500000
2022-12-14T09:56:01.169Z,8.500000
2022-12-14T09:57:01.196Z,8.500000
2022-12-14T09:58:01.164Z,8.300000
2022-12-14T09:59:01.120Z,8.300000
2022-12-14T10:00:02.185Z,8.300000
2022-12-14T10:01:01.185Z,8.300000
2022-12-14T10:02:29.540Z,8.300000
2022-12-14T10:03:06.362Z,8.300000
2022-12-14T10:04:01.994Z,8.300000
2022-12-14T10:05:01.621Z,8.300000
2022-12-14T10:06:01.252Z,8.300000
2022-12-14T10:07:01.173Z,8.300000
2022-12-14T10:08:01.500Z,8.000000
2022-12-14T10:09:00.194Z,8.000000
2022-12-14T10:10:00.988Z,8.000000
2022-12-14T10:11:00.222Z,8.000000
2022-12-14T10:12:00.306Z,8.000000
2022-12-14T10:13:00.248Z,9.400000
2022-12-14T10:14:00.359Z,9.400000
2022-12-14T10:15:00.776Z,9.400000
2022-12-14T10:16:00.504Z,9.400000
2022-12-14T10:17:00.378Z,9.400000
2022-12-14T10:18:01.793Z,7.700000
2022-12-14T10:19:01.928Z,7.700000
2022-12-14T10:20:00.934Z,7.700000
2022-12-14T10:21:00.298Z,7.600000
2022-12-14T10:22:00.393Z,7.600000
2022-12-14T10:23:00.298Z,8.300000
2022-12-14T10:24:00.414Z,8.300000
2022-12-14T10:25:00.739Z,8.300000
2022-12-14T10:26:00.453Z,8.300000
2022-12-14T10:27:00.345Z,8.300000
2022-12-14T10:28:11.409Z,8.300000
2022-12-14T10:29:01.632Z,8.300000
2022-12-14T10:30:01.110Z,8.300000
2022-12-14T10:31:00.346Z,8.100000
2022-12-14T10:32:01.969Z,8.100000
2022-12-14T10:33:00.386Z,8.100000
2022-12-14T10:34:00.436Z,8.100000
2022-12-14T10:35:00.801Z,8.100000
2022-12-14T10:36:00.480Z,8.000000
2022-12-14T10:37:00.422Z,8.000000
2022-12-14T10:38:01.838Z,6.800000
2022-12-14T10:39:00.430Z,6.800000
2022-12-14T10:40:03.521Z,6.800000
2022-12-14T10:41:00.451Z,6.800000
2022-12-14T10:42:00.557Z,6.800000
2022-12-14T10:43:00.512Z,6.700000
2022-12-14T10:44:00.552Z,6.700000
2022-12-14T10:45:39.812Z,6.700000
2022-12-14T10:46:00.672Z,6.800000
2022-12-14T10:47:00.598Z,6.800000
2022-12-14T10:48:00.576Z,6.800000
2022-12-14T10:49:00.494Z,6.800000
2022-12-14T10:50:01.160Z,8.400000
2022-12-14T10:51:00.521Z,8.400000
2022-12-14T10:52:01.880Z,8.400000
2022-12-14T10:53:00.503Z,8.400000
2022-12-14T10:54:00.635Z,8.400000
2022-12-14T10:55:01.305Z,8.400000
2022-12-14T10:56:00.675Z,8.300000
2022-12-14T10:57:00.644Z,8.300000
2022-12-14T10:58:00.635Z,8.300000
2022-12-14T10:59:00.553Z,8.300000
2022-12-14T11:00:09.135Z,7.500000
2022-12-14T11:01:00.612Z,7.500000
2022-12-14T11:02:00.884Z,7.500000
2022-12-14T11:03:00.691Z,9.000000
2022-12-14T11:04:00.642Z,9.000000
2022-12-14T11:05:01.037Z,9.000000
2022-12-14T11:06:01.787Z,9.200000
2022-12-14T11:07:00.603Z,9.200000
2022-12-14T11:08:00.697Z,8.800000
2022-12-14T11:09:00.625Z,8.800000
2022-12-14T11:10:01.319Z,8.800000
2022-12-14T11:11:00.656Z,8.800000
2022-12-14T11:12:00.790Z,8.800000
2022-12-14T11:13:00.713Z,8.600000
2022-12-14T11:14:00.930Z,8.600000
2022-12-14T11:15:01.174Z,8.600000
2022-12-14T11:16:00.808Z,8.300000
2022-12-14T11:17:00.893Z,8.300000
2022-12-14T11:18:00.948Z,8.300000
2022-12-14T11:19:00.681Z,7.700000
2022-12-14T11:20:04.240Z,7.700000
2022-12-14T11:21:00.716Z,9.000000
2022-12-14T11:22:00.877Z,9.000000
2022-12-14T11:23:00.700Z,9.000000
2022-12-14T11:24:00.836Z,9.000000
2022-12-14T11:25:01.136Z,9.000000
2022-12-14T11:26:00.831Z,9.100000
2022-12-14T11:27:00.741Z,9.100000
2022-12-14T11:28:00.821Z,9.100000
2022-12-14T11:29:00.736Z,9.100000
2022-12-14T11:30:01.532Z,9.100000
2022-12-14T11:31:00.870Z,8.800000
2022-12-14T11:32:00.962Z,8.800000
2022-12-14T11:33:00.779Z,8.800000
2022-12-14T11:34:00.917Z,8.800000
2022-12-14T11:35:01.222Z,8.800000